createdAt,value
2023-04-12T00:02:38.756Z,8.80
2023-04-12T00:07:38.721Z,8.80
2023-04-12T00:12:37.210Z,8.80
2023-04-12T00:17:35.375Z,8.80
2023-04-12T00:22:35.533Z,8.70
2023-04-12T00:27:34.039Z,8.70
2023-04-12T00:32:32.182Z,8.70
2023-04-12T00:37:31.167Z,8.70
2023-04-12T00:42:31.041Z,8.70
2023-04-12T00:47:32.664Z,8.70
2023-04-12T00:52:34.555Z,8.60
2023-04-12T00:57:38.022Z,8.90
2023-04-12T01:02:39.598Z,8.60
2023-04-12T01:07:46.805Z,8.60
2023-04-12T01:13:06.706Z,8.80
2023-04-12T01:18:09.832Z,8.80
2023-04-12T01:23:29.356Z,8.50
2023-04-12T01:28:35.370Z,8.50
2023-04-12T01:33:38.356Z,8.50
2023-04-12T01:38:36.654Z,8.40
2023-04-12T01:43:42.875Z,8.40
2023-04-12T01:48:43.292Z,8.70
2023-04-12T01:53:49.910Z,8.40
2023-04-12T01:58:52.207Z,8.40
2023-04-12T02:03:51.912Z,8.40
2023-04-12T02:08:50.974Z,8.50
2023-04-12T02:13:51.038Z,8.30
2023-04-12T02:25:39.950Z,8.30
2023-04-12T02:30:41.956Z,8.30
2023-04-12T02:35:42.278Z,8.30
2023-04-12T02:40:45.302Z,8.30
2023-04-12T02:45:48.915Z,8.30
2023-04-12T02:50:47.297Z,8.20
2023-04-12T02:55:50.036Z,8.20
2023-04-12T03:00:55.401Z,8.20
2023-04-12T03:05:59.645Z,8.10
2023-04-12T03:10:58.320Z,8.00
2023-04-12T03:16:01.087Z,8.00
2023-04-12T03:21:06.596Z,8.10
2023-04-12T03:26:05.115Z,8.10
2023-04-12T03:31:09.018Z,8.10
2023-04-12T03:36:13.759Z,8.20
2023-04-12T03:41:13.082Z,8.10
2023-04-12T03:46:15.833Z,8.10
2023-04-12T03:51:16.141Z,8.30
2023-04-12T03:56:17.073Z,8.10
2023-04-12T04:01:24.101Z,8.10
2023-04-12T04:06:24.569Z,8.20
2023-04-12T04:11:27.168Z,8.10
2023-04-12T04:16:34.962Z,8.10
2023-04-12T04:21:36.178Z,8.00
2023-04-12T04:26:35.402Z,8.00
2023-04-12T04:31:46.412Z,7.90
2023-04-12T04:36:47.479Z,8.30
2023-04-12T04:41:55.257Z,7.90
2023-04-12T04:47:08.695Z,7.90
2023-04-12T04:52:09.027Z,8.30
2023-04-12T04:57:08.004Z,8.40
2023-04-12T05:02:09.389Z,8.10
2023-04-12T05:07:08.492Z,8.30
2023-04-12T05:12:07.954Z,8.20
2023-04-12T05:17:09.181Z,8.10
2023-04-12T05:22:07.814Z,8.10
2023-04-12T05:27:06.347Z,8.20
2023-04-12T05:32:05.032Z,8.20
2023-04-12T05:37:04.586Z,8.20
2023-04-12T05:42:08.097Z,8.30
2023-04-12T05:47:07.549Z,8.70
2023-04-12T05:52:07.906Z,8.40
2023-04-12T05:57:06.475Z,8.50
2023-04-12T06:02:05.918Z,8.70
2023-04-12T06:07:05.991Z,8.80
2023-04-12T06:12:06.033Z,8.80
2023-04-12T06:17:07.265Z,8.90
2023-04-12T06:22:05.790Z,9.10
2023-04-12T06:27:06.604Z,9.20
2023-04-12T06:32:05.116Z,9.40
2023-04-12T06:37:04.252Z,9.50
2023-04-12T06:42:02.989Z,9.70
2023-04-12T06:47:02.560Z,9.80
2023-04-12T06:52:01.174Z,10.00
2023-04-12T06:57:02.010Z,10.00
2023-04-12T07:02:00.505Z,10.20
2023-04-12T07:07:00.362Z,10.30
2023-04-12T07:11:58.802Z,10.40
2023-04-12T07:16:57.234Z,10.60
2023-04-12T07:21:55.451Z,10.70
2023-04-12T07:26:56.263Z,10.90
2023-04-12T07:31:54.749Z,11.10
2023-04-12T07:36:53.226Z,11.20
2023-04-12T07:41:52.166Z,11.40
2023-04-12T07:46:51.735Z,11.30
2023-04-12T07:51:49.847Z,11.40
2023-04-12T07:56:59.828Z,11.50
2023-04-12T08:02:00.004Z,11.60
2023-04-12T08:06:58.648Z,11.70
2023-04-12T08:11:57.139Z,11.70
2023-04-12T08:16:55.813Z,11.80
2023-04-12T08:21:55.695Z,11.90
2023-04-12T08:26:54.183Z,11.90
2023-04-12T08:31:52.897Z,11.90
2023-04-12T08:36:51.470Z,12.00
2023-04-12T08:41:51.793Z,12.00
2023-04-12T08:46:53.085Z,12.10
2023-04-12T08:51:52.719Z,12.10
2023-04-12T08:56:53.825Z,12.10
2023-04-12T09:01:52.417Z,12.20
2023-04-12T09:06:51.284Z,12.20
2023-04-12T09:11:49.757Z,12.30
2023-04-12T09:16:50.183Z,12.30
2023-04-12T09:21:56.636Z,12.30
2023-04-12T09:27:06.126Z,12.40
2023-04-12T09:32:07.449Z,12.40
2023-04-12T09:37:16.487Z,12.50
2023-04-12T09:42:32.489Z,12.60
2023-04-12T09:47:41.552Z,12.80
2023-04-12T09:52:40.690Z,13.00
2023-04-12T09:57:41.847Z,13.20
2023-04-12T10:02:45.564Z,13.40
2023-04-12T10:07:45.244Z,13.50
2023-04-12T10:12:45.964Z,13.70
2023-04-12T10:17:47.416Z,13.80
2023-04-12T10:22:47.490Z,13.90
2023-04-12T10:27:46.918Z,14.00
2023-04-12T10:32:47.222Z,14.00
2023-04-12T10:38:01.705Z,13.90
2023-04-12T10:43:29.076Z,14.00
2023-04-12T10:48:33.205Z,13.90
2023-04-12T10:53:31.509Z,13.90
2023-04-12T10:59:01.325Z,13.80
2023-04-12T11:04:16.079Z,13.90
2023-04-12T11:09:29.363Z,13.80
2023-04-12T11:14:31.904Z,13.70
2023-04-12T11:19:33.096Z,13.60
2023-04-12T11:24:31.323Z,13.50
2023-04-12T11:29:29.937Z,13.40
2023-04-12T11:34:28.511Z,13.40
2023-04-12T11:39:31.937Z,13.30
2023-04-12T11:44:44.181Z,13.30
2023-04-12T11:49:53.618Z,13.20
2023-04-12T11:54:56.836Z,13.10
2023-04-12T11:59:57.996Z,13.10
2023-04-12T12:04:56.971Z,13.10
2023-04-12T12:09:57.906Z,13.10
2023-04-12T12:15:01.198Z,13.00
2023-04-12T12:20:01.778Z,13.00
2023-04-12T12:25:02.185Z,13.00
2023-04-12T12:30:02.742Z,13.00
2023-04-12T12:35:01.535Z,13.00
2023-04-12T12:40:14.896Z,13.00
2023-04-12T12:45:13.490Z,13.00
2023-04-12T12:50:14.211Z,13.00
2023-04-12T12:55:14.148Z,13.00
2023-04-12T13:00:15.595Z,13.00
2023-04-12T13:05:14.144Z,12.90
2023-04-12T13:10:14.904Z,12.90
2023-04-12T13:20:16.490Z,12.80
2023-04-12T13:25:16.334Z,12.80
2023-04-12T13:30:14.870Z,12.80
2023-04-12T13:35:13.588Z,12.90
2023-04-12T13:40:12.428Z,12.80
2023-04-12T13:45:13.315Z,12.80
2023-04-12T13:50:12.072Z,12.90
2023-04-12T13:55:11.489Z,12.90
2023-04-12T14:00:12.542Z,12.90
2023-04-12T14:05:12.164Z,13.00
2023-04-12T14:10:11.793Z,13.00
2023-04-12T14:15:11.922Z,13.00
2023-04-12T14:20:12.861Z,13.00
2023-04-12T14:25:11.731Z,12.90
2023-04-12T14:30:12.373Z,12.90
2023-04-12T14:35:12.044Z,12.80
2023-04-12T14:40:10.922Z,12.80
2023-04-12T14:45:12.785Z,12.90
2023-04-12T14:50:11.773Z,12.80
2023-04-12T14:55:12.177Z,12.80
2023-04-12T15:00:15.838Z,12.80
2023-04-12T15:05:14.190Z,12.80
2023-04-12T15:10:14.623Z,12.80
2023-04-12T15:15:15.934Z,12.70
2023-04-12T15:20:17.420Z,12.80
2023-04-12T15:25:16.117Z,12.80
2023-04-12T15:30:18.022Z,12.80
2023-04-12T15:35:26.436Z,12.80
2023-04-12T15:40:26.218Z,12.80
2023-04-12T15:45:27.052Z,12.90
2023-04-12T15:50:25.175Z,12.80
2023-04-12T15:55:23.776Z,12.80
2023-04-12T16:00:26.574Z,12.70
2023-04-12T16:05:26.768Z,12.70
2023-04-12T16:10:25.350Z,12.80
2023-04-12T16:15:24.039Z,12.70
2023-04-12T16:20:22.834Z,12.70
2023-04-12T16:25:23.596Z,12.70
2023-04-12T16:30:22.731Z,12.70
2023-04-12T16:35:21.680Z,12.70
2023-04-12T16:40:22.319Z,12.70
2023-04-12T16:45:22.034Z,12.70
2023-04-12T16:50:22.862Z,12.70
2023-04-12T16:55:24.511Z,12.70
2023-04-12T17:00:23.701Z,12.70
2023-04-12T17:05:23.540Z,12.70
2023-04-12T17:10:24.681Z,12.70
2023-04-12T17:15:23.666Z,12.60
2023-04-12T17:20:23.179Z,12.60
2023-04-12T17:30:42.264Z,12.60
2023-04-12T17:35:41.865Z,12.60
2023-04-12T17:40:41.742Z,12.60
2023-04-12T17:45:40.291Z,12.60
2023-04-12T17:50:38.377Z,12.60
2023-04-12T17:55:39.038Z,12.60
2023-04-12T18:00:39.290Z,12.60
2023-04-12T18:05:37.746Z,12.50
2023-04-12T18:10:37.175Z,12.50
2023-04-12T18:15:35.731Z,12.50
2023-04-12T18:20:35.699Z,12.50
2023-04-12T18:25:34.244Z,12.50
2023-04-12T18:30:32.714Z,12.40
2023-04-12T18:35:30.973Z,12.40
2023-04-12T18:40:30.824Z,12.40
2023-04-12T18:45:29.012Z,12.40
2023-04-12T18:50:27.736Z,12.40
2023-04-12T18:55:26.317Z,12.40
2023-04-12T19:00:26.298Z,12.40
2023-04-12T19:05:24.591Z,12.30
2023-04-12T19:10:28.337Z,12.30
2023-04-12T19:15:27.935Z,12.30
2023-04-12T19:20:26.761Z,12.30
2023-04-12T19:25:29.642Z,12.30
2023-04-12T19:30:31.337Z,12.30
2023-04-12T19:35:32.874Z,12.30
2023-04-12T19:40:31.615Z,12.30
2023-04-12T19:45:31.585Z,12.30
2023-04-12T19:50:31.293Z,12.30
2023-04-12T19:55:29.513Z,12.30
2023-04-12T20:00:28.266Z,12.30
2023-04-12T20:05:28.462Z,12.30
2023-04-12T20:10:27.033Z,12.20
2023-04-12T20:15:25.433Z,12.20
2023-04-12T20:27:17.244Z,12.10
2023-04-12T20:32:15.688Z,12.00
2023-04-12T20:37:14.786Z,12.00
2023-04-12T20:42:16.772Z,12.00
2023-04-12T20:47:15.154Z,12.00
2023-04-12T20:52:16.975Z,11.90
2023-04-12T20:57:20.096Z,11.90
2023-04-12T21:02:18.362Z,11.80
2023-04-12T21:07:18.468Z,11.70
2023-04-12T21:12:18.538Z,11.70
2023-04-12T21:17:16.959Z,11.60
2023-04-12T21:22:15.368Z,11.50
2023-04-12T21:27:14.488Z,11.50
2023-04-12T21:32:14.755Z,11.50
2023-04-12T21:37:13.493Z,11.40
2023-04-12T21:42:11.916Z,11.40
2023-04-12T21:47:10.532Z,11.40
2023-04-12T21:52:10.336Z,11.30
2023-04-12T21:57:08.414Z,11.40
2023-04-12T22:02:07.377Z,11.30
2023-04-12T22:07:07.042Z,11.40
2023-04-12T22:12:07.863Z,11.30
2023-04-12T22:17:07.112Z,11.30
2023-04-12T22:22:05.669Z,11.20
2023-04-12T22:27:03.934Z,11.20
2023-04-12T22:32:04.057Z,11.20
2023-04-12T22:37:03.843Z,11.20
2023-04-12T22:42:02.323Z,11.20
2023-04-12T22:47:03.409Z,11.10
2023-04-12T22:52:02.888Z,11.00
2023-04-12T22:57:02.720Z,10.90
2023-04-12T23:02:01.301Z,11.20
2023-04-12T23:07:01.380Z,10.80
2023-04-12T23:12:02.098Z,10.90
2023-04-12T23:17:01.361Z,10.80
2023-04-12T23:22:56.070Z,10.80
2023-04-12T23:27:57.732Z,10.80
2023-04-12T23:32:57.494Z,10.70
2023-04-12T23:37:56.102Z,10.70
2023-04-12T23:42:56.261Z,10.60
2023-04-12T23:47:54.761Z,10.60
2023-04-12T23:52:53.255Z,10.60
2023-04-12T23:57:51.877Z,10.50
